Time;durP1;ratioP1;P1;durP2;ratioP2;P2;SDS_P1;SDS_P2;PMS_P1;PMS_P2;Temp;Humidity;BMP_temperature;BMP_pressure;BME280_temperature;BME280_humidity;BME280_pressure;Samples;Min_cycle;Max_cycle;Signal;HPM_P1;HPM_P2
2023/03/17 00:00:49;;;;;;;3.97;3.30;;;7.90;99.90;;;;;;5091687;28;20236;-62
2023/03/17 00:03:21;;;;;;;4.83;3.00;;;8.00;99.90;;;;;;5095516;28;20232;-62
2023/03/17 00:05:48;;;;;;;5.03;3.07;;;7.90;99.90;;;;;;5096043;28;20204;-62
2023/03/17 00:08:20;;;;;;;3.20;2.80;;;8.00;99.90;;;;;;5095509;28;20208;-62
2023/03/17 00:10:47;;;;;;;3.97;3.20;;;8.10;99.90;;;;;;5095445;28;20232;-62
2023/03/17 00:13:14;;;;;;;4.73;2.93;;;8.20;99.90;;;;;;5095827;28;20200;-63
2023/03/17 00:15:42;;;;;;;6.50;3.03;;;8.20;99.90;;;;;;5095514;28;20215;-62
2023/03/17 00:18:13;;;;;;;3.67;3.10;;;8.20;99.90;;;;;;5095274;28;20227;-62
2023/03/17 00:20:41;;;;;;;3.90;3.00;;;8.00;99.90;;;;;;5094910;28;20730;-64
2023/03/17 00:23:14;;;;;;;5.33;3.30;;;7.90;99.90;;;;;;5095073;28;20224;-63
2023/03/17 00:25:42;;;;;;;7.33;2.80;;;7.80;99.90;;;;;;5095349;28;20630;-63
2023/03/17 00:28:14;;;;;;;3.67;3.00;;;7.80;99.90;;;;;;5095199;28;20216;-63
2023/03/17 00:30:41;;;;;;;3.80;3.00;;;7.70;99.90;;;;;;5094991;28;20224;-63
2023/03/17 00:33:10;;;;;;;4.83;2.73;;;7.60;99.90;;;;;;5094931;28;20207;-63
2023/03/17 00:35:37;;;;;;;4.87;2.80;;;7.60;99.90;;;;;;5094942;28;20200;-63
2023/03/17 00:38:07;;;;;;;5.20;3.33;;;7.50;99.90;;;;;;5095009;28;20205;-63
2023/03/17 00:40:33;;;;;;;4.40;2.93;;;7.50;99.90;;;;;;5094618;28;20232;-63
2023/03/17 00:43:01;;;;;;;4.90;3.30;;;7.50;99.90;;;;;;5094745;28;20224;-63
2023/03/17 00:45:28;;;;;;;4.87;3.07;;;7.60;99.90;;;;;;5094826;28;20269;-63
2023/03/17 00:47:56;;;;;;;5.40;3.13;;;7.60;99.90;;;;;;5094747;28;20208;-63
2023/03/17 00:50:25;;;;;;;3.90;3.13;;;7.60;99.90;;;;;;5094442;28;20257;-63
2023/03/17 00:52:54;;;;;;;5.97;2.90;;;7.50;99.90;;;;;;5094776;28;20258;-62
2023/03/17 00:55:25;;;;;;;4.87;3.57;;;7.60;99.90;;;;;;5094998;28;20208;-62
2023/03/17 00:57:52;;;;;;;3.10;2.80;;;7.60;99.90;;;;;;5094545;28;20219;-64
2023/03/17 01:00:23;;;;;;;3.77;2.70;;;7.50;99.90;;;;;;5094110;28;20589;-63
2023/03/17 01:02:52;;;;;;;3.77;2.93;;;7.50;99.90;;;;;;5094560;28;20271;-62
2023/03/17 01:05:21;;;;;;;4.13;3.10;;;7.50;99.90;;;;;;5094866;28;20584;-63
2023/03/17 01:07:51;;;;;;;3.00;2.70;;;7.40;99.90;;;;;;5094639;28;20773;-63
2023/03/17 01:10:20;;;;;;;3.77;3.00;;;7.40;99.90;;;;;;5094323;28;20232;-63
2023/03/17 01:12:48;;;;;;;4.47;2.73;;;7.50;99.90;;;;;;5093868;28;20205;-63
2023/03/17 01:15:15;;;;;;;3.63;2.97;;;7.50;99.90;;;;;;5093853;28;20208;-63
2023/03/17 01:17:43;;;;;;;4.03;3.03;;;7.50;99.90;;;;;;5094168;28;20215;-63
2023/03/17 01:20:16;;;;;;;3.40;3.00;;;7.50;99.90;;;;;;5094015;28;20231;-63
2023/03/17 01:22:43;;;;;;;4.23;3.07;;;7.60;99.90;;;;;;5094012;28;20220;-63
2023/03/17 01:25:10;;;;;;;3.37;2.70;;;7.60;99.90;;;;;;5094056;28;20212;-63
2023/03/17 01:27:37;;;;;;;3.27;2.63;;;7.60;99.90;;;;;;5093837;28;20204;-63
2023/03/17 01:30:08;;;;;;;5.53;2.60;;;7.60;99.90;;;;;;5093767;28;20232;-63
2023/03/17 01:32:34;;;;;;;3.80;3.10;;;7.60;99.90;;;;;;5093992;28;20200;-63
2023/03/17 01:35:03;;;;;;;4.23;3.10;;;7.70;99.90;;;;;;5093888;28;20243;-63
2023/03/17 01:37:30;;;;;;;3.40;2.73;;;7.80;99.90;;;;;;5093783;28;20215;-63
2023/03/17 01:39:56;;;;;;;8.97;3.30;;;7.90;99.90;;;;;;5093755;28;20270;-62
2023/03/17 01:42:24;;;;;;;3.70;2.77;;;8.00;99.90;;;;;;5093946;28;20220;-63
2023/03/17 01:44:59;;;;;;;4.67;3.43;;;8.10;99.90;;;;;;5093751;28;20643;-63
2023/03/17 01:47:29;;;;;;;4.13;3.17;;;8.10;99.90;;;;;;5094215;28;20208;-63
2023/03/17 01:49:57;;;;;;;3.70;2.97;;;8.10;99.90;;;;;;5093691;28;20236;-62
2023/03/17 01:52:25;;;;;;;5.07;2.90;;;8.10;99.90;;;;;;5094236;28;20300;-62
2023/03/17 01:54:55;;;;;;;5.47;3.20;;;8.00;99.90;;;;;;5094224;28;20216;-63
2023/03/17 01:57:28;;;;;;;3.30;2.97;;;7.90;99.90;;;;;;5093435;28;20293;-63
2023/03/17 01:59:58;;;;;;;4.10;2.80;;;7.90;99.90;;;;;;5092975;28;20261;-63
2023/03/17 02:02:30;;;;;;;4.20;2.60;;;7.80;99.90;;;;;;5093296;28;20232;-63
2023/03/17 02:04:58;;;;;;;3.30;2.97;;;7.80;99.90;;;;;;5093189;28;20208;-63
2023/03/17 02:07:26;;;;;;;4.27;2.80;;;7.80;99.90;;;;;;5093346;28;20200;-63
2023/03/17 02:09:54;;;;;;;3.07;2.57;;;7.80;99.90;;;;;;5092764;28;20261;-62
2023/03/17 02:12:22;;;;;;;3.53;2.63;;;7.70;99.90;;;;;;5093083;28;20208;-62
2023/03/17 02:14:49;;;;;;;4.00;2.80;;;7.70;99.90;;;;;;5093058;28;20212;-63
2023/03/17 02:17:15;;;;;;;3.43;2.80;;;7.70;99.90;;;;;;5092930;28;20212;-63
2023/03/17 02:19:43;;;;;;;5.57;2.90;;;7.70;99.90;;;;;;5092573;28;20269;-63
2023/03/17 02:22:11;;;;;;;3.10;2.70;;;7.70;99.90;;;;;;5093043;28;20450;-64
2023/03/17 02:24:42;;;;;;;4.20;3.03;;;7.80;99.90;;;;;;5092615;28;20203;-64
2023/03/17 02:27:12;;;;;;;5.97;3.40;;;7.80;99.90;;;;;;5092731;28;20209;-62
2023/03/17 02:29:39;;;;;;;3.37;2.97;;;7.80;99.90;;;;;;5092385;28;20583;-62
2023/03/17 02:32:08;;;;;;;2.80;2.50;;;7.80;99.90;;;;;;5092513;28;20628;-62
2023/03/17 02:34:36;;;;;;;3.73;2.90;;;7.80;99.90;;;;;;5092919;28;20203;-62
2023/03/17 02:37:02;;;;;;;3.07;2.70;;;7.80;99.90;;;;;;5092894;28;20214;-63
2023/03/17 02:39:31;;;;;;;4.23;3.13;;;7.70;99.90;;;;;;5092281;28;20212;-64
2023/03/17 02:41:58;;;;;;;4.27;3.13;;;7.80;99.90;;;;;;5092718;28;20261;-62
2023/03/17 02:44:24;;;;;;;5.97;3.60;;;7.80;99.90;;;;;;5092497;28;20227;-62
2023/03/17 02:46:51;;;;;;;6.30;3.80;;;7.90;99.90;;;;;;5092491;28;20676;-62
2023/03/17 02:49:19;;;;;;;5.50;3.10;;;8.00;99.90;;;;;;5092554;28;20242;-62
2023/03/17 02:51:46;;;;;;;3.57;2.90;;;8.10;99.90;;;;;;5092572;28;20224;-62
2023/03/17 02:54:13;;;;;;;4.43;3.37;;;8.20;99.90;;;;;;5092751;28;20247;-62
2023/03/17 02:56:41;;;;;;;4.47;3.10;;;8.20;99.90;;;;;;5092536;28;20291;-62
2023/03/17 02:59:08;;;;;;;4.37;3.07;;;8.30;99.90;;;;;;5092111;28;20205;-62
2023/03/17 03:01:35;;;;;;;4.97;3.43;;;8.30;99.90;;;;;;5115403;22;20224;-58
2023/03/17 03:04:02;;;;;;;6.37;3.57;;;8.30;99.90;;;;;;5092916;28;20224;-58
2023/03/17 03:06:30;;;;;;;5.70;3.23;;;8.40;99.90;;;;;;5093046;28;20207;-57
2023/03/17 03:08:57;;;;;;;6.03;3.60;;;8.40;99.90;;;;;;5092576;28;20257;-58
2023/03/17 03:11:23;;;;;;;4.57;3.00;;;8.50;99.90;;;;;;5092835;28;20239;-58
2023/03/17 03:13:52;;;;;;;5.83;2.90;;;8.50;99.90;;;;;;5092568;28;20200;-58
2023/03/17 03:16:18;;;;;;;3.70;2.50;;;8.40;99.90;;;;;;5092829;28;20200;-58
2023/03/17 03:18:45;;;;;;;3.03;2.60;;;8.30;99.90;;;;;;5092446;28;20204;-58
2023/03/17 03:21:12;;;;;;;3.03;2.60;;;8.30;99.90;;;;;;5092851;28;20234;-57
2023/03/17 03:23:39;;;;;;;3.63;2.80;;;8.30;99.90;;;;;;5092449;28;20216;-57
2023/03/17 03:26:06;;;;;;;3.40;2.80;;;8.20;99.90;;;;;;5092410;28;20312;-57
2023/03/17 03:28:33;;;;;;;4.13;2.70;;;8.10;99.90;;;;;;5092416;28;20216;-57
2023/03/17 03:31:01;;;;;;;5.23;2.80;;;8.10;99.90;;;;;;5092253;28;20224;-57
2023/03/17 03:33:28;;;;;;;2.93;2.50;;;8.00;99.90;;;;;;5092575;28;20206;-57
2023/03/17 03:35:55;;;;;;;3.67;2.77;;;7.90;99.90;;;;;;5092337;28;20200;-57
2023/03/17 03:38:22;;;;;;;6.93;3.20;;;7.80;99.90;;;;;;5096217;28;20253;-57
2023/03/17 03:40:49;;;;;;;3.87;2.60;;;7.70;99.90;;;;;;5096116;28;20598;-58
2023/03/17 03:43:16;;;;;;;4.47;2.50;;;7.60;99.90;;;;;;5096511;28;20227;-57
2023/03/17 03:45:42;;;;;;;4.60;2.83;;;7.50;99.90;;;;;;5096513;28;20236;-57
2023/03/17 03:48:11;;;;;;;3.33;2.90;;;7.50;99.90;;;;;;5096436;28;20200;-57
2023/03/17 03:50:37;;;;;;;3.73;2.70;;;7.50;99.90;;;;;;5096138;28;20234;-57
2023/03/17 03:53:04;;;;;;;4.43;2.67;;;7.50;99.90;;;;;;5096214;28;20581;-57
2023/03/17 03:55:31;;;;;;;4.87;2.67;;;7.50;99.90;;;;;;5096488;28;20208;-58
2023/03/17 03:57:58;;;;;;;4.93;2.90;;;7.50;99.90;;;;;;5095839;28;20575;-56
2023/03/17 04:00:25;;;;;;;3.50;2.87;;;7.60;99.90;;;;;;5095950;28;20645;-57
2023/03/17 04:02:51;;;;;;;3.37;2.47;;;7.50;99.90;;;;;;5096441;28;20204;-56
2023/03/17 04:05:20;;;;;;;4.73;2.73;;;7.50;99.90;;;;;;5095999;28;20226;-56
2023/03/17 04:07:47;;;;;;;5.60;2.70;;;7.40;99.90;;;;;;5096121;28;20208;-56
2023/03/17 04:10:15;;;;;;;2.80;2.60;;;7.40;99.90;;;;;;5095816;28;20277;-56
2023/03/17 04:12:42;;;;;;;3.40;2.90;;;7.30;99.90;;;;;;5096296;28;20620;-56
2023/03/17 04:15:14;;;;;;;4.53;3.17;;;7.30;99.90;;;;;;5095988;28;20203;-56
2023/03/17 04:17:41;;;;;;;6.37;3.10;;;7.30;99.90;;;;;;5096785;28;20253;-57
2023/03/17 04:20:09;;;;;;;6.37;4.07;;;7.30;99.90;;;;;;5095874;28;20263;-57
2023/03/17 04:22:37;;;;;;;4.00;2.73;;;7.20;99.90;;;;;;5096129;28;20250;-57
2023/03/17 04:25:05;;;;;;;2.50;2.07;;;7.20;99.90;;;;;;5095560;28;20600;-56
2023/03/17 04:27:32;;;;;;;4.30;2.63;;;7.10;99.90;;;;;;5095762;28;20208;-56
2023/03/17 04:30:00;;;;;;;14.93;9.90;;;7.10;99.90;;;;;;5095187;28;20825;-56
2023/03/17 04:32:27;;;;;;;5.73;4.30;;;7.00;99.90;;;;;;5095511;28;20302;-57
2023/03/17 04:34:54;;;;;;;5.87;3.70;;;7.00;99.90;;;;;;5095408;28;20675;-57
2023/03/17 04:37:20;;;;;;;6.73;4.77;;;6.90;99.90;;;;;;5095759;28;20212;-57
2023/03/17 04:39:48;;;;;;;6.07;4.60;;;6.70;99.90;;;;;;5095150;28;20207;-57
2023/03/17 04:42:15;;;;;;;5.50;3.73;;;6.50;99.90;;;;;;5095787;28;20208;-57
2023/03/17 04:44:42;;;;;;;5.97;4.23;;;6.50;99.90;;;;;;5095543;28;20231;-57
2023/03/17 04:47:09;;;;;;;4.60;3.30;;;6.40;99.90;;;;;;5095543;28;20204;-57
2023/03/17 04:49:36;;;;;;;4.77;3.20;;;6.30;99.90;;;;;;5093940;28;20227;-57
2023/03/17 04:52:03;;;;;;;4.27;3.20;;;6.00;99.90;;;;;;5095365;28;20226;-57
2023/03/17 04:54:30;;;;;;;4.90;3.27;;;6.00;99.90;;;;;;5095620;28;20207;-57
2023/03/17 04:56:58;;;;;;;4.20;3.07;;;5.90;99.90;;;;;;5095673;28;20200;-57
2023/03/17 04:59:26;;;;;;;3.43;2.93;;;5.70;99.90;;;;;;5095253;28;20290;-57
2023/03/17 05:01:52;;;;;;;5.77;3.30;;;5.70;99.90;;;;;;5095136;28;20238;-57
2023/03/17 05:04:19;;;;;;;4.60;3.00;;;5.60;99.90;;;;;;5095152;28;20573;-57
2023/03/17 05:06:46;;;;;;;4.40;2.97;;;5.70;99.90;;;;;;5095426;28;20251;-57
2023/03/17 05:09:13;;;;;;;6.00;3.23;;;5.80;99.90;;;;;;5094674;28;20637;-57
2023/03/17 05:11:40;;;;;;;4.30;2.70;;;5.80;99.90;;;;;;5094714;28;20235;-57
2023/03/17 05:14:08;;;;;;;3.30;2.80;;;5.80;99.90;;;;;;5094816;28;20623;-57
2023/03/17 05:16:35;;;;;;;3.57;2.83;;;5.70;99.90;;;;;;5094652;28;20204;-57
2023/03/17 05:19:02;;;;;;;4.80;2.87;;;5.60;99.90;;;;;;5094582;28;20208;-57
2023/03/17 05:21:29;;;;;;;5.03;2.90;;;5.60;99.90;;;;;;5094704;28;20224;-57
2023/03/17 05:23:56;;;;;;;5.03;3.20;;;5.60;99.90;;;;;;5094226;28;20649;-57
2023/03/17 05:26:23;;;;;;;5.10;3.23;;;5.50;99.90;;;;;;5095054;28;20507;-57
2023/03/17 05:28:49;;;;;;;3.13;2.53;;;5.50;99.90;;;;;;5094307;28;20215;-57
2023/03/17 05:31:18;;;;;;;4.70;2.93;;;5.50;99.90;;;;;;5094125;28;20220;-57
2023/03/17 05:33:47;;;;;;;4.67;3.20;;;5.50;99.90;;;;;;5094316;28;20200;-57
2023/03/17 05:36:14;;;;;;;4.27;2.70;;;5.50;99.90;;;;;;5094480;28;20247;-57
2023/03/17 05:38:41;;;;;;;5.20;4.20;;;5.50;99.90;;;;;;5094565;28;20287;-57
2023/03/17 05:41:09;;;;;;;4.03;3.40;;;5.70;99.90;;;;;;5094034;28;20263;-57
2023/03/17 05:43:36;;;;;;;5.07;3.10;;;5.70;99.90;;;;;;5094355;28;20259;-57
2023/03/17 05:46:04;;;;;;;3.83;3.03;;;5.80;99.90;;;;;;5094097;28;20223;-57
2023/03/17 05:48:32;;;;;;;5.20;3.40;;;5.90;99.90;;;;;;5094337;28;20201;-57
2023/03/17 05:50:59;;;;;;;4.50;3.20;;;6.00;99.90;;;;;;5093838;28;20231;-57
2023/03/17 05:53:27;;;;;;;4.07;3.03;;;6.00;99.90;;;;;;5094055;28;20208;-57
2023/03/17 05:55:53;;;;;;;3.20;2.80;;;6.10;99.90;;;;;;5093798;28;20204;-57
2023/03/17 05:58:21;;;;;;;6.03;3.40;;;6.10;99.90;;;;;;5093554;28;20204;-57
2023/03/17 06:00:47;;;;;;;7.20;4.07;;;6.10;99.90;;;;;;5092944;28;20609;-57
2023/03/17 06:03:14;;;;;;;5.27;3.60;;;6.30;99.90;;;;;;5093826;28;20212;-57
2023/03/17 06:05:43;;;;;;;5.20;3.50;;;6.40;99.90;;;;;;5094140;28;20212;-57
2023/03/17 06:08:10;;;;;;;6.07;4.00;;;6.60;99.90;;;;;;5094189;28;20208;-57
2023/03/17 06:10:36;;;;;;;5.90;3.40;;;6.90;99.90;;;;;;5093722;28;20227;-57
2023/03/17 06:13:03;;;;;;;4.17;2.70;;;7.00;99.90;;;;;;5093617;28;20237;-58
2023/03/17 06:15:31;;;;;;;4.87;3.10;;;7.20;99.90;;;;;;5094242;28;20243;-58
2023/03/17 06:17:58;;;;;;;10.70;3.80;;;7.30;99.90;;;;;;5093714;28;20200;-57
2023/03/17 06:20:25;;;;;;;4.83;3.60;;;7.40;99.90;;;;;;5093743;28;20260;-56
2023/03/17 06:22:53;;;;;;;5.53;3.00;;;7.50;99.90;;;;;;5094152;28;20300;-56
2023/03/17 06:25:20;;;;;;;5.80;2.83;;;7.70;99.90;;;;;;5093506;28;20236;-56
2023/03/17 06:27:46;;;;;;;3.87;2.83;;;7.80;99.90;;;;;;5093180;28;20340;-56
2023/03/17 06:30:14;;;;;;;3.97;3.10;;;8.00;99.90;;;;;;5093408;28;20636;-56
2023/03/17 06:32:40;;;;;;;4.80;2.90;;;8.20;99.90;;;;;;5093762;28;20279;-56
2023/03/17 06:35:08;;;;;;;5.70;3.13;;;8.50;99.90;;;;;;5093680;28;20204;-56
2023/03/17 06:37:35;;;;;;;8.80;2.97;;;8.70;99.90;;;;;;5093460;28;20196;-56
2023/03/17 06:40:04;;;;;;;7.93;2.63;;;8.90;99.90;;;;;;5092961;28;20224;-56
2023/03/17 06:42:31;;;;;;;7.17;2.80;;;9.10;99.90;;;;;;5093395;28;20200;-57
2023/03/17 06:44:58;;;;;;;4.23;2.90;;;9.30;99.90;;;;;;5093171;28;20277;-57
2023/03/17 06:47:25;;;;;;;5.73;3.63;;;9.50;99.90;;;;;;5093150;28;20215;-57
2023/03/17 06:49:52;;;;;;;4.20;3.10;;;9.80;99.90;;;;;;5092580;28;20204;-57
2023/03/17 06:52:19;;;;;;;6.60;3.00;;;10.30;99.90;;;;;;5092850;28;20208;-57
2023/03/17 06:54:45;;;;;;;3.67;3.03;;;11.10;99.90;;;;;;5092851;28;20208;-57
2023/03/17 06:57:14;;;;;;;5.30;3.70;;;11.90;99.90;;;;;;5092919;28;20227;-58
2023/03/17 06:59:40;;;;;;;5.47;4.63;;;12.80;99.90;;;;;;5092672;28;20207;-58
2023/03/17 07:02:07;;;;;;;5.83;4.63;;;13.50;99.90;;;;;;5092697;28;20690;-57
2023/03/17 07:04:36;;;;;;;6.57;4.63;;;14.30;99.90;;;;;;5092745;28;20224;-57
2023/03/17 07:07:04;;;;;;;8.60;3.87;;;15.40;99.50;;;;;;5092680;28;20291;-57
2023/03/17 07:09:33;;;;;;;6.60;3.33;;;16.20;97.80;;;;;;5092915;28;20626;-57
2023/03/17 07:12:03;;;;;;;5.65;3.28;;;16.80;96.60;;;;;;5091832;28;20220;-58
2023/03/17 07:14:32;;;;;;;4.63;3.28;;;17.30;94.90;;;;;;5092781;28;20291;-58
2023/03/17 07:16:59;;;;;;;6.57;3.45;;;17.90;94.40;;;;;;5092479;28;20205;-57
2023/03/17 07:19:26;;;;;;;4.95;2.70;;;18.50;93.50;;;;;;5092072;28;20641;-57
2023/03/17 07:21:54;;;;;;;4.07;2.58;;;19.10;91.20;;;;;;5092562;28;20224;-57
2023/03/17 07:24:21;;;;;;;3.55;2.38;;;19.40;89.10;;;;;;5092542;28;20220;-58
2023/03/17 07:26:48;;;;;;;4.22;2.80;;;19.60;86.00;;;;;;5092930;28;20196;-58
2023/03/17 07:29:16;;;;;;;4.60;2.60;;;19.50;85.90;;;;;;5092938;28;20584;-56
2023/03/17 07:31:44;;;;;;;2.78;2.50;;;19.10;85.60;;;;;;5092659;28;20228;-56
2023/03/17 07:34:11;;;;;;;5.45;3.00;;;18.70;85.20;;;;;;5092765;28;20223;-57
2023/03/17 07:36:38;;;;;;;3.05;2.70;;;18.40;85.80;;;;;;5093599;28;20211;-56
2023/03/17 07:39:06;;;;;;;4.55;2.58;;;18.10;85.70;;;;;;5093284;28;20220;-57
2023/03/17 07:41:32;;;;;;;4.25;2.88;;;18.10;85.90;;;;;;5093028;28;20282;-58
2023/03/17 07:43:59;;;;;;;2.42;2.17;;;18.20;85.40;;;;;;5093763;28;20204;-54
2023/03/17 07:46:26;;;;;;;3.83;2.15;;;18.20;85.50;;;;;;5093570;28;20216;-56
2023/03/17 07:48:54;;;;;;;3.33;2.33;;;18.40;84.90;;;;;;5092956;28;20204;-56
2023/03/17 07:51:26;;;;;;;3.35;2.17;;;18.30;83.60;;;;;;5093054;28;20231;-56
2023/03/17 07:53:54;;;;;;;4.13;2.53;;;18.20;82.80;;;;;;5092757;28;20248;-57
2023/03/17 07:56:21;;;;;;;7.28;2.90;;;18.00;83.00;;;;;;5092319;28;20209;-56
2023/03/17 07:58:47;;;;;;;3.30;2.50;;;17.80;83.00;;;;;;5092276;28;20476;-59
2023/03/17 08:01:15;;;;;;;4.35;2.40;;;17.50;82.70;;;;;;5094190;28;20236;-58
2023/03/17 08:03:41;;;;;;;2.78;2.15;;;17.40;82.80;;;;;;5094274;28;20234;-58
2023/03/17 08:06:10;;;;;;;3.55;2.60;;;17.20;83.20;;;;;;5092905;28;20232;-58
2023/03/17 08:08:37;;;;;;;5.53;3.03;;;16.90;83.00;;;;;;5093357;28;20205;-58
2023/03/17 08:11:06;;;;;;;5.67;2.50;;;16.70;82.50;;;;;;5092650;28;20231;-58
2023/03/17 08:13:34;;;;;;;4.90;2.60;;;16.40;83.80;;;;;;5092885;28;20201;-58
2023/03/17 08:16:01;;;;;;;6.90;3.07;;;16.20;84.10;;;;;;5092963;28;20298;-58
2023/03/17 08:18:28;;;;;;;6.53;3.07;;;16.00;84.80;;;;;;5093598;28;20306;-58
2023/03/17 08:20:54;;;;;;;4.60;2.80;;;16.00;84.70;;;;;;5094165;28;20774;-57
2023/03/17 08:23:24;;;;;;;4.73;3.00;;;15.90;86.00;;;;;;5096018;28;20291;-58
2023/03/17 08:25:55;;;;;;;7.27;2.40;;;15.70;86.20;;;;;;5097858;28;20277;-58
2023/03/17 08:28:22;;;;;;;5.47;2.03;;;15.70;85.80;;;;;;5098996;28;20211;-58
2023/03/17 08:30:49;;;;;;;3.60;1.90;;;15.70;85.40;;;;;;5098234;28;20235;-58
2023/03/17 08:33:16;;;;;;;2.40;2.00;;;15.50;84.40;;;;;;5097748;28;20684;-58
2023/03/17 08:35:43;;;;;;;4.33;2.73;;;15.30;85.00;;;;;;5097206;28;20223;-56
2023/03/17 08:38:11;;;;;;;3.53;2.80;;;15.10;90.40;;;;;;5097311;28;20250;-58
2023/03/17 08:40:39;;;;;;;6.93;2.90;;;14.70;93.40;;;;;;5096763;28;20789;-57
2023/03/17 08:43:07;;;;;;;5.27;3.07;;;14.60;95.20;;;;;;5096589;28;20204;-58
2023/03/17 08:45:34;;;;;;;3.83;2.77;;;14.50;96.10;;;;;;5096406;28;20243;-58
2023/03/17 08:48:02;;;;;;;5.67;3.30;;;14.30;95.80;;;;;;5096401;28;20204;-57
2023/03/17 08:50:29;;;;;;;6.50;3.40;;;14.20;96.20;;;;;;5096136;28;20243;-58
2023/03/17 08:52:56;;;;;;;8.70;3.10;;;14.20;96.50;;;;;;5096803;28;20201;-58
2023/03/17 08:55:23;;;;;;;5.30;2.80;;;14.40;95.90;;;;;;5097378;28;20290;-58
2023/03/17 08:57:51;;;;;;;7.27;2.90;;;14.60;95.40;;;;;;5097014;28;20228;-57
2023/03/17 09:00:19;;;;;;;4.80;2.40;;;14.80;95.20;;;;;;5096354;28;20383;-58
2023/03/17 09:02:47;;;;;;;2.53;2.13;;;15.00;93.70;;;;;;5096309;28;20209;-58
2023/03/17 09:05:16;;;;;;;3.00;1.83;;;15.10;93.20;;;;;;5096149;28;20244;-59
2023/03/17 09:07:43;;;;;;;2.87;1.80;;;15.10;91.90;;;;;;5095511;28;20223;-59
2023/03/17 09:10:12;;;;;;;3.37;1.67;;;15.20;90.90;;;;;;5095188;28;20220;-59
2023/03/17 09:12:39;;;;;;;5.05;1.67;;;15.30;90.20;;;;;;5095445;28;20683;-58
2023/03/17 09:15:09;;;;;;;2.33;1.60;;;15.30;89.80;;;;;;5095285;28;20211;-59
2023/03/17 09:17:36;;;;;;;5.20;1.90;;;15.40;89.70;;;;;;5095598;28;20235;-59
2023/03/17 09:20:05;;;;;;;4.03;2.77;;;15.60;89.50;;;;;;5091179;28;20224;-59
2023/03/17 09:22:32;;;;;;;2.58;1.60;;;15.70;89.40;;;;;;5093530;28;20480;-61
2023/03/17 09:24:59;;;;;;;3.87;1.63;;;15.80;89.10;;;;;;5093537;28;20224;-61
2023/03/17 09:27:26;;;;;;;2.50;1.90;;;15.80;88.70;;;;;;5094083;28;20200;-61
2023/03/17 09:29:53;;;;;;;2.60;1.80;;;16.00;89.00;;;;;;5094041;28;20208;-61
2023/03/17 09:32:21;;;;;;;2.47;1.75;;;15.90;88.30;;;;;;5088023;28;20200;-59
2023/03/17 09:34:48;;;;;;;1.88;1.50;;;16.10;88.40;;;;;;5088393;28;20207;-58
2023/03/17 09:37:15;;;;;;;2.27;1.63;;;16.20;88.10;;;;;;5093173;28;20212;-57
2023/03/17 09:39:42;;;;;;;2.20;1.80;;;16.40;87.80;;;;;;5093020;28;20687;-58
2023/03/17 09:42:24;;;;;;;5.03;2.03;;;16.50;87.70;;;;;;5093180;28;20208;-58
2023/03/17 09:45:12;;;;;;;2.65;1.60;;;16.50;87.20;;;;;;5093187;28;20234;-57
2023/03/17 09:47:56;;;;;;;2.63;1.50;;;16.50;86.60;;;;;;5092915;28;20244;-57
2023/03/17 09:50:25;;;;;;;4.43;1.55;;;16.50;87.90;;;;;;5092751;28;20235;-58
2023/03/17 09:52:55;;;;;;;2.65;1.45;;;16.50;87.10;;;;;;5093147;28;20254;-58
2023/03/17 09:55:27;;;;;;;4.35;1.65;;;16.50;86.50;;;;;;5092509;28;20243;-57
2023/03/17 09:57:57;;;;;;;3.28;1.98;;;16.70;85.80;;;;;;5092658;28;20641;-58
2023/03/17 10:00:29;;;;;;;3.47;1.90;;;16.90;85.50;;;;;;5092577;28;20319;-57
2023/03/17 10:02:58;;;;;;;1.80;1.50;;;17.10;85.10;;;;;;5093135;28;20210;-57
2023/03/17 10:05:27;;;;;;;2.33;1.38;;;17.30;85.00;;;;;;5092253;28;20216;-58
2023/03/17 10:08:04;;;;;;;1.48;1.15;;;17.60;84.00;;;;;;5092633;28;20211;-57
2023/03/17 10:10:37;;;;;;;4.32;1.50;;;17.90;82.40;;;;;;5093969;28;20228;-65
2023/03/17 10:13:14;;;;;;;2.15;1.70;;;18.00;81.30;;;;;;5093843;28;20196;-66
2023/03/17 10:15:49;;;;;;;2.30;1.10;;;17.90;80.50;;;;;;5094515;28;20204;-63
2023/03/17 10:18:18;;;;;;;1.58;0.98;;;17.90;78.10;;;;;;5092541;28;20631;-58
2023/03/17 10:20:51;;;;;;;1.77;1.08;;;18.10;76.50;;;;;;5092074;28;20235;-58
2023/03/17 10:23:23;;;;;;;3.38;1.40;;;18.20;74.70;;;;;;5092881;28;20279;-58
2023/03/17 10:25:50;;;;;;;1.52;1.17;;;18.30;76.30;;;;;;5092360;28;20232;-58
2023/03/17 10:28:26;;;;;;;3.17;1.50;;;18.40;77.50;;;;;;5092322;28;20667;-58
2023/03/17 10:30:53;;;;;;;2.72;1.50;;;18.50;77.90;;;;;;5091853;28;20228;-57
2023/03/17 10:33:21;;;;;;;8.82;1.27;;;18.60;77.60;;;;;;5092347;28;20212;-58
2023/03/17 10:35:48;;;;;;;2.25;0.85;;;18.50;74.20;;;;;;5092322;28;20227;-58
2023/03/17 10:38:18;;;;;;;0.95;0.80;;;18.70;73.30;;;;;;5092600;28;20301;-57
2023/03/17 10:40:47;;;;;;;1.10;0.90;;;18.80;69.90;;;;;;5092102;28;20227;-58
2023/03/17 10:43:19;;;;;;;2.90;0.90;;;19.00;67.20;;;;;;5091793;28;20204;-58
2023/03/17 10:45:58;;;;;;;3.35;1.73;;;19.10;66.90;;;;;;5091959;28;20220;-58
2023/03/17 10:48:28;;;;;;;3.08;1.30;;;19.10;67.70;;;;;;5092182;28;20289;-58
2023/03/17 10:50:57;;;;;;;2.00;1.00;;;19.20;66.60;;;;;;5092088;28;20220;-60
2023/03/17 10:53:27;;;;;;;5.15;1.30;;;19.10;66.20;;;;;;5092320;28;20204;-58
2023/03/17 10:55:59;;;;;;;3.10;1.27;;;19.20;67.20;;;;;;5091940;28;20709;-63
2023/03/17 10:58:37;;;;;;;1.35;1.00;;;19.50;66.80;;;;;;5094017;28;20206;-56
2023/03/17 11:01:07;;;;;;;1.55;0.95;;;19.70;66.20;;;;;;5091723;28;20330;-58
2023/03/17 11:03:40;;;;;;;1.80;1.00;;;20.10;65.50;;;;;;5092058;28;20204;-58
2023/03/17 11:06:10;;;;;;;1.63;0.95;;;20.50;64.60;;;;;;5091826;28;20231;-58
2023/03/17 11:08:40;;;;;;;3.08;1.10;;;21.00;62.90;;;;;;5091659;28;20218;-59
2023/03/17 11:11:10;;;;;;;2.28;1.00;;;21.20;62.60;;;;;;5092591;28;20225;-60
2023/03/17 11:13:37;;;;;;;2.13;1.55;;;21.60;63.10;;;;;;5092838;28;20212;-57
2023/03/17 11:16:21;;;;;;;2.47;1.08;;;22.10;62.00;;;;;;5092823;28;20238;-57
2023/03/17 11:18:51;;;;;;;2.80;1.20;;;22.30;61.10;;;;;;5084144;28;20204;-60
2023/03/17 11:21:22;;;;;;;2.30;1.15;;;22.40;59.80;;;;;;5091590;28;20500;-59
2023/03/17 11:23:51;;;;;;;2.65;1.08;;;22.50;60.10;;;;;;5091565;28;20219;-60
2023/03/17 11:26:43;;;;;;;1.33;1.05;;;22.40;59.00;;;;;;5091583;28;20220;-61
2023/03/17 11:29:22;;;;;;;1.40;0.90;;;22.20;59.40;;;;;;5084998;28;20219;-61
2023/03/17 11:31:57;;;;;;;3.70;1.27;;;22.00;59.70;;;;;;5091124;28;20220;-60
2023/03/17 11:34:40;;;;;;;2.65;1.10;;;21.90;59.50;;;;;;5091894;28;20219;-60
2023/03/17 11:37:20;;;;;;;2.58;1.00;;;21.80;59.50;;;;;;5091738;28;20245;-58
2023/03/17 11:39:55;;;;;;;1.88;1.00;;;21.80;59.50;;;;;;5091304;28;20269;-56
2023/03/17 11:42:27;;;;;;;1.73;0.90;;;21.90;59.60;;;;;;5092361;28;20662;-58
2023/03/17 11:45:21;;;;;;;0.95;0.82;;;22.10;59.60;;;;;;5092513;28;20228;-57
2023/03/17 11:48:06;;;;;;;4.40;1.10;;;22.30;57.70;;;;;;5092058;28;20207;-57
2023/03/17 11:50:41;;;;;;;1.27;0.88;;;22.50;57.70;;;;;;5091860;28;20742;-57
2023/03/17 11:53:24;;;;;;;1.85;0.95;;;22.70;57.50;;;;;;5092445;28;20207;-56
2023/03/17 11:55:56;;;;;;;1.35;0.90;;;22.80;57.30;;;;;;5092148;28;20278;-57
2023/03/17 11:58:29;;;;;;;2.97;1.00;;;23.00;57.10;;;;;;5094376;28;20679;-57
2023/03/17 12:00:59;;;;;;;1.40;1.02;;;23.10;56.90;;;;;;5095971;28;20231;-57
2023/03/17 12:03:31;;;;;;;2.08;1.05;;;23.30;56.40;;;;;;5095899;28;20208;-56
2023/03/17 12:06:04;;;;;;;1.15;0.95;;;23.40;56.80;;;;;;5096135;28;20228;-58
2023/03/17 12:08:38;;;;;;;2.40;1.05;;;23.40;56.30;;;;;;5096001;28;20668;-56
2023/03/17 12:11:09;;;;;;;2.35;1.00;;;23.50;56.10;;;;;;5095719;28;20224;-57
2023/03/17 12:13:41;;;;;;;1.85;1.10;;;23.60;55.50;;;;;;5095698;28;20204;-56
2023/03/17 12:16:16;;;;;;;1.08;0.85;;;23.70;55.80;;;;;;5096210;28;20578;-57
2023/03/17 12:18:58;;;;;;;3.65;0.90;;;23.90;55.00;;;;;;5096416;28;20207;-57
2023/03/17 12:21:35;;;;;;;1.55;1.00;;;24.00;54.70;;;;;;5096335;28;20281;-58
2023/03/17 12:24:08;;;;;;;1.42;0.80;;;24.00;54.70;;;;;;5096102;28;20226;-56
2023/03/17 12:26:39;;;;;;;3.53;1.23;;;23.80;54.30;;;;;;5095603;28;20231;-57
2023/03/17 12:29:12;;;;;;;3.58;1.00;;;23.60;54.90;;;;;;5096190;28;20200;-56
2023/03/17 12:31:45;;;;;;;3.03;1.02;;;23.60;54.70;;;;;;5095642;28;20224;-57
2023/03/17 12:34:20;;;;;;;1.20;0.90;;;23.80;54.00;;;;;;5095753;28;20640;-57
2023/03/17 12:36:49;;;;;;;1.60;0.80;;;24.00;53.60;;;;;;5096117;28;20261;-57
2023/03/17 12:39:18;;;;;;;3.22;1.23;;;24.20;53.00;;;;;;5095965;28;20206;-56
2023/03/17 12:42:09;;;;;;;2.33;1.10;;;24.30;53.50;;;;;;5095245;28;20224;-56
2023/03/17 12:45:00;;;;;;;2.05;1.27;;;24.40;54.20;;;;;;5095453;28;20208;-56
2023/03/17 12:47:55;;;;;;;3.47;1.00;;;24.30;53.80;;;;;;5065654;28;20707;-57
2023/03/17 12:50:48;;;;;;;1.77;1.17;;;24.40;53.90;;;;;;5094979;28;20246;-57
2023/03/17 12:53:26;;;;;;;2.80;0.98;;;24.50;53.20;;;;;;5084880;28;20204;-57
2023/03/17 12:55:57;;;;;;;3.00;0.95;;;24.20;53.50;;;;;;5095520;28;20196;-57
2023/03/17 12:58:37;;;;;;;1.85;1.10;;;24.20;53.40;;;;;;5095743;28;20211;-58
2023/03/17 13:01:13;;;;;;;2.88;1.00;;;24.30;54.60;;;;;;5095171;28;20258;-56
2023/03/17 13:03:55;;;;;;;1.83;0.90;;;24.30;55.40;;;;;;5095659;28;20219;-56